sensor_id;sensor_type;location;lat;lon;timestamp;P1;durP1;ratioP1;P2;durP2;ratioP2
23668;SDS011;12011;47.422;15.018;2023-04-03T00:02:07;1.27;;;1.27;;
23668;SDS011;12011;47.422;15.018;2023-04-03T00:04:41;1.04;;;1.04;;
23668;SDS011;12011;47.422;15.018;2023-04-03T00:07:17;1.07;;;1.07;;
23668;SDS011;12011;47.422;15.018;2023-04-03T00:09:49;1.06;;;1.06;;
23668;SDS011;12011;47.422;15.018;2023-04-03T00:12:26;1.03;;;1.03;;
23668;SDS011;12011;47.422;15.018;2023-04-03T00:15:08;1.22;;;1.21;;
23668;SDS011;12011;47.422;15.018;2023-04-03T00:17:40;1.04;;;1.03;;
23668;SDS011;12011;47.422;15.018;2023-04-03T00:20:15;1.14;;;1.13;;
23668;SDS011;12011;47.422;15.018;2023-04-03T00:22:49;1.15;;;1.14;;
23668;SDS011;12011;47.422;15.018;2023-04-03T00:25:22;1.11;;;1.09;;
23668;SDS011;12011;47.422;15.018;2023-04-03T00:27:53;1.08;;;1.07;;
23668;SDS011;12011;47.422;15.018;2023-04-03T00:30:30;1.02;;;1.02;;
23668;SDS011;12011;47.422;15.018;2023-04-03T00:33:05;1.09;;;1.09;;
23668;SDS011;12011;47.422;15.018;2023-04-03T00:35:52;1.04;;;1.03;;
23668;SDS011;12011;47.422;15.018;2023-04-03T00:38:23;1.24;;;1.24;;
23668;SDS011;12011;47.422;15.018;2023-04-03T00:40:55;1.18;;;1.17;;
23668;SDS011;12011;47.422;15.018;2023-04-03T00:43:27;1.30;;;1.29;;
23668;SDS011;12011;47.422;15.018;2023-04-03T00:46:00;1.16;;;1.16;;
23668;SDS011;12011;47.422;15.018;2023-04-03T00:48:32;1.15;;;1.15;;
23668;SDS011;12011;47.422;15.018;2023-04-03T00:51:21;1.27;;;1.27;;
23668;SDS011;12011;47.422;15.018;2023-04-03T00:53:58;1.28;;;1.28;;
23668;SDS011;12011;47.422;15.018;2023-04-03T00:56:37;1.32;;;1.32;;
23668;SDS011;12011;47.422;15.018;2023-04-03T00:59:10;1.25;;;1.24;;
23668;SDS011;12011;47.422;15.018;2023-04-03T01:01:59;1.29;;;1.27;;
23668;SDS011;12011;47.422;15.018;2023-04-03T01:04:39;1.43;;;1.42;;
23668;SDS011;12011;47.422;15.018;2023-04-03T01:07:21;1.42;;;1.42;;
23668;SDS011;12011;47.422;15.018;2023-04-03T01:10:06;1.35;;;1.35;;
23668;SDS011;12011;47.422;15.018;2023-04-03T01:12:49;1.26;;;1.26;;
23668;SDS011;12011;47.422;15.018;2023-04-03T01:15:27;1.37;;;1.37;;
23668;SDS011;12011;47.422;15.018;2023-04-03T01:18:09;1.34;;;1.34;;
23668;SDS011;12011;47.422;15.018;2023-04-03T01:24:31;1.19;;;1.19;;
23668;SDS011;12011;47.422;15.018;2023-04-03T01:27:09;1.22;;;1.22;;
23668;SDS011;12011;47.422;15.018;2023-04-03T01:32:28;1.09;;;1.08;;
23668;SDS011;12011;47.422;15.018;2023-04-03T01:35:07;1.28;;;1.28;;
23668;SDS011;12011;47.422;15.018;2023-04-03T01:37:49;1.15;;;1.15;;
23668;SDS011;12011;47.422;15.018;2023-04-03T01:40:23;1.24;;;1.23;;
23668;SDS011;12011;47.422;15.018;2023-04-03T01:43:00;1.21;;;1.20;;
23668;SDS011;12011;47.422;15.018;2023-04-03T01:45:34;1.22;;;1.22;;
23668;SDS011;12011;47.422;15.018;2023-04-03T01:48:19;1.22;;;1.22;;
23668;SDS011;12011;47.422;15.018;2023-04-03T01:50:59;1.20;;;1.20;;
23668;SDS011;12011;47.422;15.018;2023-04-03T01:53:30;1.16;;;1.16;;
23668;SDS011;12011;47.422;15.018;2023-04-03T01:59:04;1.10;;;1.10;;
23668;SDS011;12011;47.422;15.018;2023-04-03T02:01:37;1.18;;;1.18;;
23668;SDS011;12011;47.422;15.018;2023-04-03T02:04:16;1.27;;;1.27;;
23668;SDS011;12011;47.422;15.018;2023-04-03T02:06:54;1.14;;;1.13;;
23668;SDS011;12011;47.422;15.018;2023-04-03T02:09:25;1.14;;;1.14;;
23668;SDS011;12011;47.422;15.018;2023-04-03T02:12:02;1.23;;;1.23;;
23668;SDS011;12011;47.422;15.018;2023-04-03T02:14:37;1.12;;;1.11;;
23668;SDS011;12011;47.422;15.018;2023-04-03T02:17:11;1.23;;;1.22;;
23668;SDS011;12011;47.422;15.018;2023-04-03T02:20:00;1.15;;;1.14;;
23668;SDS011;12011;47.422;15.018;2023-04-03T02:22:36;1.29;;;1.28;;
23668;SDS011;12011;47.422;15.018;2023-04-03T02:25:15;1.15;;;1.13;;
23668;SDS011;12011;47.422;15.018;2023-04-03T02:27:49;1.26;;;1.25;;
23668;SDS011;12011;47.422;15.018;2023-04-03T02:30:22;1.29;;;1.28;;
23668;SDS011;12011;47.422;15.018;2023-04-03T02:32:53;1.42;;;1.42;;
23668;SDS011;12011;47.422;15.018;2023-04-03T02:35:31;1.29;;;1.29;;
23668;SDS011;12011;47.422;15.018;2023-04-03T02:38:05;1.32;;;1.32;;
23668;SDS011;12011;47.422;15.018;2023-04-03T02:40:37;1.20;;;1.20;;
23668;SDS011;12011;47.422;15.018;2023-04-03T02:43:16;1.18;;;1.18;;
23668;SDS011;12011;47.422;15.018;2023-04-03T02:45:49;1.20;;;1.20;;
23668;SDS011;12011;47.422;15.018;2023-04-03T02:48:23;1.22;;;1.22;;
23668;SDS011;12011;47.422;15.018;2023-04-03T02:50:57;1.17;;;1.17;;
23668;SDS011;12011;47.422;15.018;2023-04-03T02:56:19;1.34;;;1.34;;
23668;SDS011;12011;47.422;15.018;2023-04-03T02:58:54;1.13;;;1.13;;
23668;SDS011;12011;47.422;15.018;2023-04-03T03:01:28;1.14;;;1.14;;
23668;SDS011;12011;47.422;15.018;2023-04-03T03:03:58;1.20;;;1.20;;
23668;SDS011;12011;47.422;15.018;2023-04-03T03:06:36;1.15;;;1.15;;
23668;SDS011;12011;47.422;15.018;2023-04-03T03:09:06;1.30;;;1.29;;
23668;SDS011;12011;47.422;15.018;2023-04-03T03:11:43;1.26;;;1.25;;
23668;SDS011;12011;47.422;15.018;2023-04-03T03:14:19;1.12;;;1.12;;
23668;SDS011;12011;47.422;15.018;2023-04-03T03:16:58;1.26;;;1.26;;
23668;SDS011;12011;47.422;15.018;2023-04-03T03:19:32;1.30;;;1.30;;
23668;SDS011;12011;47.422;15.018;2023-04-03T03:22:06;1.14;;;1.14;;
23668;SDS011;12011;47.422;15.018;2023-04-03T03:24:39;1.28;;;1.28;;
23668;SDS011;12011;47.422;15.018;2023-04-03T03:27:13;1.08;;;1.08;;
23668;SDS011;12011;47.422;15.018;2023-04-03T03:29:44;1.09;;;1.09;;
23668;SDS011;12011;47.422;15.018;2023-04-03T03:32:15;1.03;;;1.03;;
23668;SDS011;12011;47.422;15.018;2023-04-03T03:34:46;1.24;;;1.24;;
23668;SDS011;12011;47.422;15.018;2023-04-03T03:37:23;1.07;;;1.07;;
23668;SDS011;12011;47.422;15.018;2023-04-03T03:40:00;1.07;;;1.07;;
23668;SDS011;12011;47.422;15.018;2023-04-03T03:42:54;1.02;;;1.02;;
23668;SDS011;12011;47.422;15.018;2023-04-03T03:45:30;0.96;;;0.96;;
23668;SDS011;12011;47.422;15.018;2023-04-03T03:48:05;1.00;;;1.00;;
23668;SDS011;12011;47.422;15.018;2023-04-03T03:50:38;1.05;;;1.05;;
23668;SDS011;12011;47.422;15.018;2023-04-03T03:53:11;1.00;;;1.00;;
23668;SDS011;12011;47.422;15.018;2023-04-03T03:55:49;0.92;;;0.92;;
23668;SDS011;12011;47.422;15.018;2023-04-03T03:58:28;0.86;;;0.86;;
23668;SDS011;12011;47.422;15.018;2023-04-03T04:01:00;0.93;;;0.93;;
23668;SDS011;12011;47.422;15.018;2023-04-03T04:03:45;0.89;;;0.89;;
23668;SDS011;12011;47.422;15.018;2023-04-03T04:06:19;0.92;;;0.92;;
23668;SDS011;12011;47.422;15.018;2023-04-03T04:09:00;0.99;;;0.99;;
23668;SDS011;12011;47.422;15.018;2023-04-03T04:11:33;0.77;;;0.77;;
23668;SDS011;12011;47.422;15.018;2023-04-03T04:14:05;0.99;;;0.99;;
23668;SDS011;12011;47.422;15.018;2023-04-03T04:16:41;0.90;;;0.90;;
23668;SDS011;12011;47.422;15.018;2023-04-03T04:19:20;0.88;;;0.88;;
23668;SDS011;12011;47.422;15.018;2023-04-03T04:22:00;0.84;;;0.84;;
23668;SDS011;12011;47.422;15.018;2023-04-03T04:24:37;1.05;;;1.05;;
23668;SDS011;12011;47.422;15.018;2023-04-03T04:27:08;0.90;;;0.90;;
23668;SDS011;12011;47.422;15.018;2023-04-03T04:29:38;0.75;;;0.75;;
23668;SDS011;12011;47.422;15.018;2023-04-03T04:32:18;0.85;;;0.85;;
23668;SDS011;12011;47.422;15.018;2023-04-03T04:34:50;0.95;;;0.95;;
23668;SDS011;12011;47.422;15.018;2023-04-03T04:37:23;0.95;;;0.95;;
23668;SDS011;12011;47.422;15.018;2023-04-03T04:40:08;1.00;;;1.00;;
23668;SDS011;12011;47.422;15.018;2023-04-03T04:42:59;0.93;;;0.93;;
23668;SDS011;12011;47.422;15.018;2023-04-03T04:45:30;0.92;;;0.91;;
23668;SDS011;12011;47.422;15.018;2023-04-03T04:48:11;0.90;;;0.90;;
23668;SDS011;12011;47.422;15.018;2023-04-03T04:50:51;0.99;;;0.99;;
23668;SDS011;12011;47.422;15.018;2023-04-03T04:53:33;1.01;;;1.01;;
23668;SDS011;12011;47.422;15.018;2023-04-03T04:56:08;1.06;;;1.06;;
23668;SDS011;12011;47.422;15.018;2023-04-03T04:58:48;0.97;;;0.97;;
23668;SDS011;12011;47.422;15.018;2023-04-03T05:01:20;1.05;;;1.05;;
23668;SDS011;12011;47.422;15.018;2023-04-03T05:04:02;1.07;;;1.07;;
23668;SDS011;12011;47.422;15.018;2023-04-03T05:06:35;1.03;;;1.03;;
23668;SDS011;12011;47.422;15.018;2023-04-03T05:09:11;1.09;;;1.09;;
23668;SDS011;12011;47.422;15.018;2023-04-03T05:11:54;1.17;;;1.16;;
23668;SDS011;12011;47.422;15.018;2023-04-03T05:14:27;1.05;;;1.04;;
23668;SDS011;12011;47.422;15.018;2023-04-03T05:17:01;1.11;;;1.11;;
23668;SDS011;12011;47.422;15.018;2023-04-03T05:19:33;1.09;;;1.08;;
23668;SDS011;12011;47.422;15.018;2023-04-03T05:22:05;1.02;;;1.02;;
23668;SDS011;12011;47.422;15.018;2023-04-03T05:24:35;1.02;;;1.02;;
23668;SDS011;12011;47.422;15.018;2023-04-03T05:27:08;0.99;;;0.99;;
23668;SDS011;12011;47.422;15.018;2023-04-03T05:29:41;1.02;;;1.02;;
23668;SDS011;12011;47.422;15.018;2023-04-03T05:32:16;0.95;;;0.95;;
23668;SDS011;12011;47.422;15.018;2023-04-03T05:34:50;1.24;;;1.24;;
23668;SDS011;12011;47.422;15.018;2023-04-03T05:37:20;1.29;;;1.29;;
23668;SDS011;12011;47.422;15.018;2023-04-03T05:39:51;0.99;;;0.99;;
23668;SDS011;12011;47.422;15.018;2023-04-03T05:42:25;1.06;;;1.06;;
23668;SDS011;12011;47.422;15.018;2023-04-03T05:44:55;1.09;;;1.09;;
23668;SDS011;12011;47.422;15.018;2023-04-03T05:47:26;1.02;;;1.02;;
23668;SDS011;12011;47.422;15.018;2023-04-03T05:49:56;1.05;;;1.05;;
23668;SDS011;12011;47.422;15.018;2023-04-03T05:52:27;1.01;;;1.01;;
23668;SDS011;12011;47.422;15.018;2023-04-03T05:54:59;1.02;;;1.02;;
23668;SDS011;12011;47.422;15.018;2023-04-03T05:57:35;0.90;;;0.90;;
23668;SDS011;12011;47.422;15.018;2023-04-03T06:00:08;1.08;;;1.08;;
23668;SDS011;12011;47.422;15.018;2023-04-03T06:02:49;0.97;;;0.97;;
23668;SDS011;12011;47.422;15.018;2023-04-03T06:05:22;0.97;;;0.97;;
23668;SDS011;12011;47.422;15.018;2023-04-03T06:07:52;1.00;;;1.00;;
23668;SDS011;12011;47.422;15.018;2023-04-03T06:10:22;1.12;;;1.12;;
23668;SDS011;12011;47.422;15.018;2023-04-03T06:12:54;0.85;;;0.85;;
23668;SDS011;12011;47.422;15.018;2023-04-03T06:15:24;1.05;;;1.05;;
23668;SDS011;12011;47.422;15.018;2023-04-03T06:17:53;0.93;;;0.93;;
23668;SDS011;12011;47.422;15.018;2023-04-03T06:20:23;1.00;;;1.00;;
23668;SDS011;12011;47.422;15.018;2023-04-03T06:22:53;0.92;;;0.92;;
23668;SDS011;12011;47.422;15.018;2023-04-03T06:25:22;0.80;;;0.80;;
23668;SDS011;12011;47.422;15.018;2023-04-03T06:27:54;0.83;;;0.83;;
23668;SDS011;12011;47.422;15.018;2023-04-03T06:30:24;0.97;;;0.97;;
23668;SDS011;12011;47.422;15.018;2023-04-03T06:32:53;0.87;;;0.87;;
23668;SDS011;12011;47.422;15.018;2023-04-03T06:35:24;0.79;;;0.79;;
23668;SDS011;12011;47.422;15.018;2023-04-03T06:37:55;0.87;;;0.87;;
23668;SDS011;12011;47.422;15.018;2023-04-03T06:40:25;0.95;;;0.95;;
23668;SDS011;12011;47.422;15.018;2023-04-03T06:42:57;0.96;;;0.96;;
23668;SDS011;12011;47.422;15.018;2023-04-03T06:45:27;1.02;;;1.02;;
23668;SDS011;12011;47.422;15.018;2023-04-03T06:47:56;0.94;;;0.93;;
23668;SDS011;12011;47.422;15.018;2023-04-03T06:50:26;0.95;;;0.95;;
23668;SDS011;12011;47.422;15.018;2023-04-03T06:52:56;0.96;;;0.96;;
23668;SDS011;12011;47.422;15.018;2023-04-03T06:55:26;0.77;;;0.77;;
23668;SDS011;12011;47.422;15.018;2023-04-03T06:57:58;0.89;;;0.89;;
23668;SDS011;12011;47.422;15.018;2023-04-03T07:00:29;0.83;;;0.83;;
23668;SDS011;12011;47.422;15.018;2023-04-03T07:02:59;0.82;;;0.82;;
23668;SDS011;12011;47.422;15.018;2023-04-03T07:05:28;0.83;;;0.83;;
23668;SDS011;12011;47.422;15.018;2023-04-03T07:07:58;0.75;;;0.75;;
23668;SDS011;12011;47.422;15.018;2023-04-03T07:10:27;0.77;;;0.77;;
23668;SDS011;12011;47.422;15.018;2023-04-03T07:13:00;0.92;;;0.92;;
23668;SDS011;12011;47.422;15.018;2023-04-03T07:15:29;0.95;;;0.95;;
23668;SDS011;12011;47.422;15.018;2023-04-03T07:17:59;0.82;;;0.82;;
23668;SDS011;12011;47.422;15.018;2023-04-03T07:20:30;0.78;;;0.78;;
23668;SDS011;12011;47.422;15.018;2023-04-03T07:22:59;0.99;;;0.99;;
23668;SDS011;12011;47.422;15.018;2023-04-03T07:25:29;0.92;;;0.92;;
23668;SDS011;12011;47.422;15.018;2023-04-03T07:28:02;0.92;;;0.92;;
23668;SDS011;12011;47.422;15.018;2023-04-03T07:30:33;0.86;;;0.86;;
23668;SDS011;12011;47.422;15.018;2023-04-03T07:33:03;0.92;;;0.92;;
23668;SDS011;12011;47.422;15.018;2023-04-03T07:35:32;0.97;;;0.97;;
23668;SDS011;12011;47.422;15.018;2023-04-03T07:38:02;0.81;;;0.81;;
23668;SDS011;12011;47.422;15.018;2023-04-03T07:40:31;0.84;;;0.84;;
23668;SDS011;12011;47.422;15.018;2023-04-03T07:43:04;0.71;;;0.71;;
23668;SDS011;12011;47.422;15.018;2023-04-03T07:45:34;0.84;;;0.84;;
23668;SDS011;12011;47.422;15.018;2023-04-03T07:48:04;0.79;;;0.79;;
23668;SDS011;12011;47.422;15.018;2023-04-03T07:50:34;0.71;;;0.71;;
23668;SDS011;12011;47.422;15.018;2023-04-03T07:53:04;0.86;;;0.86;;
23668;SDS011;12011;47.422;15.018;2023-04-03T07:55:34;0.76;;;0.76;;
23668;SDS011;12011;47.422;15.018;2023-04-03T07:58:11;0.89;;;0.89;;
23668;SDS011;12011;47.422;15.018;2023-04-03T08:00:44;0.73;;;0.73;;
23668;SDS011;12011;47.422;15.018;2023-04-03T08:03:15;0.65;;;0.65;;
23668;SDS011;12011;47.422;15.018;2023-04-03T08:05:45;0.77;;;0.77;;
23668;SDS011;12011;47.422;15.018;2023-04-03T08:08:17;0.87;;;0.87;;
23668;SDS011;12011;47.422;15.018;2023-04-03T08:10:50;0.75;;;0.75;;
23668;SDS011;12011;47.422;15.018;2023-04-03T08:13:24;0.71;;;0.71;;
23668;SDS011;12011;47.422;15.018;2023-04-03T08:15:53;0.83;;;0.83;;
23668;SDS011;12011;47.422;15.018;2023-04-03T08:18:24;0.89;;;0.89;;
23668;SDS011;12011;47.422;15.018;2023-04-03T08:20:54;0.79;;;0.79;;
23668;SDS011;12011;47.422;15.018;2023-04-03T08:23:23;0.85;;;0.85;;
23668;SDS011;12011;47.422;15.018;2023-04-03T08:25:53;0.85;;;0.85;;
23668;SDS011;12011;47.422;15.018;2023-04-03T08:28:25;0.81;;;0.81;;
23668;SDS011;12011;47.422;15.018;2023-04-03T08:30:54;0.80;;;0.80;;
23668;SDS011;12011;47.422;15.018;2023-04-03T08:33:24;0.78;;;0.78;;
23668;SDS011;12011;47.422;15.018;2023-04-03T08:35:53;0.74;;;0.74;;
23668;SDS011;12011;47.422;15.018;2023-04-03T08:38:25;0.74;;;0.74;;
23668;SDS011;12011;47.422;15.018;2023-04-03T08:41:01;0.60;;;0.60;;
23668;SDS011;12011;47.422;15.018;2023-04-03T08:43:46;0.76;;;0.76;;
23668;SDS011;12011;47.422;15.018;2023-04-03T08:46:35;0.77;;;0.77;;
23668;SDS011;12011;47.422;15.018;2023-04-03T08:49:26;0.73;;;0.73;;
23668;SDS011;12011;47.422;15.018;2023-04-03T08:52:01;0.74;;;0.74;;
23668;SDS011;12011;47.422;15.018;2023-04-03T08:54:40;0.74;;;0.74;;
23668;SDS011;12011;47.422;15.018;2023-04-03T08:57:20;0.81;;;0.81;;
23668;SDS011;12011;47.422;15.018;2023-04-03T09:00:03;0.62;;;0.62;;
23668;SDS011;12011;47.422;15.018;2023-04-03T09:02:39;0.75;;;0.75;;
23668;SDS011;12011;47.422;15.018;2023-04-03T09:05:13;0.68;;;0.68;;
23668;SDS011;12011;47.422;15.018;2023-04-03T09:07:46;0.85;;;0.85;;
23668;SDS011;12011;47.422;15.018;2023-04-03T09:10:26;0.78;;;0.78;;
23668;SDS011;12011;47.422;15.018;2023-04-03T09:13:03;0.92;;;0.92;;
23668;SDS011;12011;47.422;15.018;2023-04-03T09:15:42;0.82;;;0.82;;
23668;SDS011;12011;47.422;15.018;2023-04-03T09:18:15;0.80;;;0.80;;
23668;SDS011;12011;47.422;15.018;2023-04-03T09:20:52;0.95;;;0.95;;
23668;SDS011;12011;47.422;15.018;2023-04-03T09:23:32;1.01;;;1.01;;
23668;SDS011;12011;47.422;15.018;2023-04-03T09:26:12;1.11;;;1.11;;
23668;SDS011;12011;47.422;15.018;2023-04-03T09:28:47;0.97;;;0.97;;
23668;SDS011;12011;47.422;15.018;2023-04-03T09:31:23;1.03;;;1.03;;
23668;SDS011;12011;47.422;15.018;2023-04-03T09:33:58;1.07;;;1.07;;
23668;SDS011;12011;47.422;15.018;2023-04-03T09:36:37;0.97;;;0.97;;
23668;SDS011;12011;47.422;15.018;2023-04-03T09:39:11;0.93;;;0.93;;
23668;SDS011;12011;47.422;15.018;2023-04-03T09:41:54;0.95;;;0.95;;
23668;SDS011;12011;47.422;15.018;2023-04-03T09:44:29;0.94;;;0.94;;
23668;SDS011;12011;47.422;15.018;2023-04-03T09:47:16;0.93;;;0.93;;
23668;SDS011;12011;47.422;15.018;2023-04-03T09:49:52;1.04;;;1.04;;
23668;SDS011;12011;47.422;15.018;2023-04-03T09:52:48;0.92;;;0.92;;
23668;SDS011;12011;47.422;15.018;2023-04-03T09:55:20;1.19;;;1.18;;
23668;SDS011;12011;47.422;15.018;2023-04-03T09:57:55;1.06;;;1.05;;
23668;SDS011;12011;47.422;15.018;2023-04-03T10:00:30;1.24;;;1.24;;
23668;SDS011;12011;47.422;15.018;2023-04-03T10:03:20;1.43;;;1.43;;
23668;SDS011;12011;47.422;15.018;2023-04-03T10:05:57;1.21;;;1.21;;
23668;SDS011;12011;47.422;15.018;2023-04-03T10:08:28;1.17;;;1.17;;
23668;SDS011;12011;47.422;15.018;2023-04-03T10:11:06;1.16;;;1.16;;
23668;SDS011;12011;47.422;15.018;2023-04-03T10:13:55;1.40;;;1.40;;
23668;SDS011;12011;47.422;15.018;2023-04-03T10:16:35;1.39;;;1.39;;
23668;SDS011;12011;47.422;15.018;2023-04-03T10:19:23;1.30;;;1.30;;
23668;SDS011;12011;47.422;15.018;2023-04-03T10:22:08;1.18;;;1.18;;
23668;SDS011;12011;47.422;15.018;2023-04-03T10:24:51;1.22;;;1.22;;
23668;SDS011;12011;47.422;15.018;2023-04-03T10:27:37;1.35;;;1.35;;
23668;SDS011;12011;47.422;15.018;2023-04-03T10:30:27;1.06;;;1.06;;
23668;SDS011;12011;47.422;15.018;2023-04-03T10:33:22;1.16;;;1.16;;
23668;SDS011;12011;47.422;15.018;2023-04-03T10:39:34;1.18;;;1.18;;
23668;SDS011;12011;47.422;15.018;2023-04-03T10:42:24;1.18;;;1.18;;
23668;SDS011;12011;47.422;15.018;2023-04-03T10:45:17;1.13;;;1.13;;
23668;SDS011;12011;47.422;15.018;2023-04-03T10:48:00;1.13;;;1.13;;
23668;SDS011;12011;47.422;15.018;2023-04-03T10:50:47;1.16;;;1.16;;
23668;SDS011;12011;47.422;15.018;2023-04-03T10:53:35;1.27;;;1.27;;
23668;SDS011;12011;47.422;15.018;2023-04-03T10:56:18;1.20;;;1.20;;
23668;SDS011;12011;47.422;15.018;2023-04-03T10:59:02;1.19;;;1.19;;
23668;SDS011;12011;47.422;15.018;2023-04-03T11:01:53;1.14;;;1.14;;
23668;SDS011;12011;47.422;15.018;2023-04-03T11:04:31;1.27;;;1.27;;
23668;SDS011;12011;47.422;15.018;2023-04-03T11:07:17;1.39;;;1.39;;
23668;SDS011;12011;47.422;15.018;2023-04-03T11:10:05;1.37;;;1.37;;
23668;SDS011;12011;47.422;15.018;2023-04-03T11:12:46;1.20;;;1.20;;
23668;SDS011;12011;47.422;15.018;2023-04-03T11:15:26;1.09;;;1.09;;
23668;SDS011;12011;47.422;15.018;2023-04-03T11:18:10;0.96;;;0.96;;
23668;SDS011;12011;47.422;15.018;2023-04-03T11:20:57;1.33;;;1.33;;
23668;SDS011;12011;47.422;15.018;2023-04-03T11:23:34;1.19;;;1.19;;
23668;SDS011;12011;47.422;15.018;2023-04-03T11:26:15;1.08;;;1.08;;
23668;SDS011;12011;47.422;15.018;2023-04-03T11:28:58;1.12;;;1.12;;
23668;SDS011;12011;47.422;15.018;2023-04-03T11:31:41;1.20;;;1.20;;
23668;SDS011;12011;47.422;15.018;2023-04-03T11:34:36;1.14;;;1.14;;
23668;SDS011;12011;47.422;15.018;2023-04-03T11:37:16;1.16;;;1.16;;
23668;SDS011;12011;47.422;15.018;2023-04-03T11:39:56;1.27;;;1.27;;
23668;SDS011;12011;47.422;15.018;2023-04-03T11:42:48;1.06;;;1.06;;
23668;SDS011;12011;47.422;15.018;2023-04-03T11:45:33;1.09;;;1.09;;
23668;SDS011;12011;47.422;15.018;2023-04-03T12:12:56;0.99;;;0.99;;
23668;SDS011;12011;47.422;15.018;2023-04-03T12:24:35;0.87;;;0.87;;
23668;SDS011;12011;47.422;15.018;2023-04-03T12:27:18;0.95;;;0.95;;
23668;SDS011;12011;47.422;15.018;2023-04-03T12:30:04;0.88;;;0.88;;
23668;SDS011;12011;47.422;15.018;2023-04-03T12:36:03;0.80;;;0.80;;
23668;SDS011;12011;47.422;15.018;2023-04-03T12:38:48;0.77;;;0.77;;
23668;SDS011;12011;47.422;15.018;2023-04-03T12:41:36;0.75;;;0.75;;
23668;SDS011;12011;47.422;15.018;2023-04-03T12:44:18;1.03;;;1.03;;
23668;SDS011;12011;47.422;15.018;2023-04-03T12:47:14;0.84;;;0.84;;
23668;SDS011;12011;47.422;15.018;2023-04-03T12:50:01;0.86;;;0.86;;
23668;SDS011;12011;47.422;15.018;2023-04-03T12:52:43;0.74;;;0.74;;
23668;SDS011;12011;47.422;15.018;2023-04-03T12:55:19;1.01;;;1.01;;
23668;SDS011;12011;47.422;15.018;2023-04-03T12:57:50;0.83;;;0.83;;
23668;SDS011;12011;47.422;15.018;2023-04-03T13:00:28;0.74;;;0.74;;
23668;SDS011;12011;47.422;15.018;2023-04-03T13:03:01;0.89;;;0.89;;
23668;SDS011;12011;47.422;15.018;2023-04-03T13:05:36;0.89;;;0.89;;
23668;SDS011;12011;47.422;15.018;2023-04-03T13:08:08;1.00;;;1.00;;
23668;SDS011;12011;47.422;15.018;2023-04-03T13:10:47;0.98;;;0.97;;
23668;SDS011;12011;47.422;15.018;2023-04-03T13:13:24;0.90;;;0.90;;
23668;SDS011;12011;47.422;15.018;2023-04-03T13:15:54;0.91;;;0.91;;
23668;SDS011;12011;47.422;15.018;2023-04-03T13:18:25;0.95;;;0.95;;
23668;SDS011;12011;47.422;15.018;2023-04-03T13:21:01;0.70;;;0.70;;
23668;SDS011;12011;47.422;15.018;2023-04-03T13:23:36;0.88;;;0.88;;
23668;SDS011;12011;47.422;15.018;2023-04-03T13:26:10;0.98;;;0.98;;
23668;SDS011;12011;47.422;15.018;2023-04-03T13:28:41;0.97;;;0.97;;
23668;SDS011;12011;47.422;15.018;2023-04-03T13:31:18;0.93;;;0.93;;
23668;SDS011;12011;47.422;15.018;2023-04-03T13:33:55;1.04;;;1.04;;
23668;SDS011;12011;47.422;15.018;2023-04-03T13:36:34;1.09;;;1.09;;
23668;SDS011;12011;47.422;15.018;2023-04-03T13:39:17;0.95;;;0.95;;
23668;SDS011;12011;47.422;15.018;2023-04-03T13:41:53;0.78;;;0.78;;
23668;SDS011;12011;47.422;15.018;2023-04-03T13:44:28;0.83;;;0.83;;
23668;SDS011;12011;47.422;15.018;2023-04-03T13:47:14;0.81;;;0.81;;
23668;SDS011;12011;47.422;15.018;2023-04-03T13:49:59;0.90;;;0.90;;
23668;SDS011;12011;47.422;15.018;2023-04-03T13:52:39;0.84;;;0.84;;
23668;SDS011;12011;47.422;15.018;2023-04-03T13:55:18;0.84;;;0.84;;
23668;SDS011;12011;47.422;15.018;2023-04-03T13:57:53;0.90;;;0.90;;
23668;SDS011;12011;47.422;15.018;2023-04-03T14:00:28;0.99;;;0.99;;
23668;SDS011;12011;47.422;15.018;2023-04-03T14:03:11;0.99;;;0.99;;
23668;SDS011;12011;47.422;15.018;2023-04-03T14:05:42;0.88;;;0.88;;
23668;SDS011;12011;47.422;15.018;2023-04-03T14:08:15;0.92;;;0.92;;
23668;SDS011;12011;47.422;15.018;2023-04-03T14:10:45;0.83;;;0.83;;
23668;SDS011;12011;47.422;15.018;2023-04-03T14:13:17;0.88;;;0.88;;
23668;SDS011;12011;47.422;15.018;2023-04-03T14:15:48;1.05;;;1.05;;
23668;SDS011;12011;47.422;15.018;2023-04-03T14:18:19;1.03;;;1.03;;
23668;SDS011;12011;47.422;15.018;2023-04-03T14:20:49;0.96;;;0.96;;
23668;SDS011;12011;47.422;15.018;2023-04-03T14:23:21;1.01;;;1.01;;
23668;SDS011;12011;47.422;15.018;2023-04-03T14:25:51;0.98;;;0.98;;
23668;SDS011;12011;47.422;15.018;2023-04-03T14:28:21;1.16;;;1.16;;
23668;SDS011;12011;47.422;15.018;2023-04-03T14:30:51;1.14;;;1.14;;
23668;SDS011;12011;47.422;15.018;2023-04-03T14:33:21;0.97;;;0.97;;
23668;SDS011;12011;47.422;15.018;2023-04-03T14:35:53;1.08;;;1.08;;
23668;SDS011;12011;47.422;15.018;2023-04-03T14:38:26;0.94;;;0.94;;
23668;SDS011;12011;47.422;15.018;2023-04-03T14:40:58;0.94;;;0.94;;
23668;SDS011;12011;47.422;15.018;2023-04-03T14:43:28;0.91;;;0.91;;
23668;SDS011;12011;47.422;15.018;2023-04-03T14:45:57;1.10;;;1.10;;
23668;SDS011;12011;47.422;15.018;2023-04-03T14:48:27;0.97;;;0.97;;
23668;SDS011;12011;47.422;15.018;2023-04-03T14:50:59;1.05;;;1.05;;
23668;SDS011;12011;47.422;15.018;2023-04-03T14:53:31;1.10;;;1.10;;
23668;SDS011;12011;47.422;15.018;2023-04-03T14:56:04;1.19;;;1.19;;
23668;SDS011;12011;47.422;15.018;2023-04-03T14:58:39;1.21;;;1.21;;
23668;SDS011;12011;47.422;15.018;2023-04-03T15:01:09;1.20;;;1.20;;
23668;SDS011;12011;47.422;15.018;2023-04-03T15:03:40;1.30;;;1.30;;
23668;SDS011;12011;47.422;15.018;2023-04-03T15:06:10;1.37;;;1.37;;
23668;SDS011;12011;47.422;15.018;2023-04-03T15:08:45;1.21;;;1.21;;
23668;SDS011;12011;47.422;15.018;2023-04-03T15:11:16;1.17;;;1.17;;
23668;SDS011;12011;47.422;15.018;2023-04-03T15:13:46;1.49;;;1.49;;
23668;SDS011;12011;47.422;15.018;2023-04-03T15:16:16;1.56;;;1.56;;
23668;SDS011;12011;47.422;15.018;2023-04-03T15:18:48;1.51;;;1.51;;
23668;SDS011;12011;47.422;15.018;2023-04-03T15:21:17;1.58;;;1.58;;
23668;SDS011;12011;47.422;15.018;2023-04-03T15:23:49;1.41;;;1.41;;
23668;SDS011;12011;47.422;15.018;2023-04-03T15:26:19;1.47;;;1.47;;
23668;SDS011;12011;47.422;15.018;2023-04-03T15:28:49;1.48;;;1.48;;
23668;SDS011;12011;47.422;15.018;2023-04-03T15:31:18;1.32;;;1.32;;
23668;SDS011;12011;47.422;15.018;2023-04-03T15:33:48;1.33;;;1.33;;
23668;SDS011;12011;47.422;15.018;2023-04-03T15:36:17;1.48;;;1.48;;
23668;SDS011;12011;47.422;15.018;2023-04-03T15:38:49;1.34;;;1.34;;
23668;SDS011;12011;47.422;15.018;2023-04-03T15:41:19;1.40;;;1.40;;
23668;SDS011;12011;47.422;15.018;2023-04-03T15:43:48;1.54;;;1.54;;
23668;SDS011;12011;47.422;15.018;2023-04-03T15:46:18;1.54;;;1.54;;
23668;SDS011;12011;47.422;15.018;2023-04-03T15:48:47;1.73;;;1.73;;
23668;SDS011;12011;47.422;15.018;2023-04-03T15:51:17;1.56;;;1.56;;
23668;SDS011;12011;47.422;15.018;2023-04-03T15:53:46;1.47;;;1.47;;
23668;SDS011;12011;47.422;15.018;2023-04-03T15:56:18;1.61;;;1.61;;
23668;SDS011;12011;47.422;15.018;2023-04-03T15:58:48;1.75;;;1.75;;
23668;SDS011;12011;47.422;15.018;2023-04-03T16:01:17;1.78;;;1.78;;
23668;SDS011;12011;47.422;15.018;2023-04-03T16:03:47;1.82;;;1.82;;
23668;SDS011;12011;47.422;15.018;2023-04-03T16:06:17;1.86;;;1.86;;
23668;SDS011;12011;47.422;15.018;2023-04-03T16:08:50;1.75;;;1.75;;
23668;SDS011;12011;47.422;15.018;2023-04-03T16:11:23;1.90;;;1.90;;
23668;SDS011;12011;47.422;15.018;2023-04-03T16:13:53;1.78;;;1.78;;
23668;SDS011;12011;47.422;15.018;2023-04-03T16:16:23;1.76;;;1.76;;